createdAt,value
2018-05-06T00:00:41.619Z,11.10
2018-05-06T00:03:09.242Z,11.20
2018-05-06T00:05:36.858Z,11.20
2018-05-06T00:08:04.481Z,11.20
2018-05-06T00:10:32.865Z,11.20
2018-05-06T00:13:00.490Z,11.10
2018-05-06T00:15:28.107Z,11.10
2018-05-06T00:17:55.715Z,11.00
2018-05-06T00:20:23.334Z,10.90
2018-05-06T00:22:51.715Z,10.70
2018-05-06T00:25:19.342Z,10.70
2018-05-06T00:27:46.995Z,10.60
2018-05-06T00:30:15.618Z,10.50
2018-05-06T00:32:43.998Z,10.50
2018-05-06T00:35:11.615Z,10.50
2018-05-06T00:37:39.235Z,10.50
2018-05-06T00:40:06.859Z,10.60
2018-05-06T00:42:34.472Z,10.50
2018-05-06T00:45:02.088Z,10.50
2018-05-06T00:47:29.715Z,10.50
2018-05-06T00:49:57.339Z,10.60
2018-05-06T00:52:24.959Z,10.60
2018-05-06T00:54:52.575Z,10.50
2018-05-06T00:57:20.195Z,10.60
2018-05-06T00:59:47.807Z,10.60
2018-05-06T01:02:15.422Z,10.40
2018-05-06T01:04:43.055Z,10.40
2018-05-06T01:07:10.683Z,10.30
2018-05-06T01:09:38.293Z,10.30
2018-05-06T01:12:06.679Z,10.10
2018-05-06T01:14:34.294Z,10.20
2018-05-06T01:17:01.921Z,10.10
2018-05-06T01:19:29.567Z,10.00
2018-05-06T01:21:57.950Z,10.10
2018-05-06T01:24:25.608Z,10.10
2018-05-06T01:26:53.191Z,10.00
2018-05-06T01:29:20.803Z,10.10
2018-05-06T01:31:48.411Z,9.90
2018-05-06T01:34:16.103Z,10.00
2018-05-06T01:36:43.647Z,10.00
2018-05-06T01:39:12.777Z,10.00
2018-05-06T01:41:40.395Z,10.00
2018-05-06T01:44:08.042Z,9.80
2018-05-06T01:46:35.659Z,9.70
2018-05-06T01:49:03.280Z,9.60
2018-05-06T01:51:30.882Z,9.70
2018-05-06T01:53:58.503Z,9.70
2018-05-06T01:56:26.119Z,9.50
2018-05-06T01:58:53.739Z,9.40
2018-05-06T02:01:21.385Z,9.40
2018-05-06T02:03:48.999Z,9.40
2018-05-06T02:06:16.615Z,9.40
2018-05-06T02:08:44.228Z,9.40
2018-05-06T02:11:11.839Z,9.30
2018-05-06T02:13:39.448Z,9.40
2018-05-06T02:16:07.067Z,9.40
2018-05-06T02:18:35.447Z,9.40
2018-05-06T02:21:03.063Z,9.40
2018-05-06T02:23:30.678Z,9.40
2018-05-06T02:25:59.063Z,9.30
2018-05-06T02:28:26.677Z,9.30
2018-05-06T02:30:54.282Z,9.30
2018-05-06T02:33:22.664Z,9.10
2018-05-06T02:35:50.279Z,9.00
2018-05-06T02:38:18.112Z,8.90
2018-05-06T02:40:45.694Z,8.80
2018-05-06T02:43:13.299Z,8.70
2018-05-06T02:45:40.924Z,8.70
2018-05-06T02:48:08.531Z,8.50
2018-05-06T02:50:36.143Z,8.50
2018-05-06T02:53:03.759Z,8.50
2018-05-06T02:55:31.371Z,8.50
2018-05-06T02:57:58.986Z,8.50
2018-05-06T03:00:26.598Z,8.60
2018-05-06T03:02:54.995Z,8.60
2018-05-06T03:05:22.600Z,8.60
2018-05-06T03:07:50.214Z,8.50
2018-05-06T03:10:18.811Z,8.50
2018-05-06T03:12:46.419Z,8.50
2018-05-06T03:15:14.035Z,8.50
2018-05-06T03:17:41.653Z,8.50
2018-05-06T03:20:09.267Z,8.50
2018-05-06T03:22:36.883Z,8.50
2018-05-06T03:25:04.499Z,8.50
2018-05-06T03:27:32.882Z,8.60
2018-05-06T03:30:00.599Z,8.50
2018-05-06T03:32:28.175Z,8.50
2018-05-06T03:34:55.786Z,8.40
2018-05-06T03:37:23.404Z,8.30
2018-05-06T03:39:51.012Z,8.40
2018-05-06T03:42:18.622Z,8.40
2018-05-06T03:44:46.231Z,8.40
2018-05-06T03:47:13.847Z,8.30
2018-05-06T03:49:41.461Z,8.30
2018-05-06T03:52:09.072Z,8.40
2018-05-06T03:54:36.687Z,8.40
2018-05-06T03:57:16.103Z,8.40
2018-05-06T03:59:55.573Z,8.40
2018-05-06T04:05:18.239Z,8.30
2018-05-06T04:07:45.850Z,8.30
2018-05-06T04:10:13.462Z,8.30
2018-05-06T04:12:52.845Z,8.40
2018-05-06T04:15:20.443Z,8.30
2018-05-06T04:17:48.062Z,8.40
2018-05-06T04:20:15.675Z,8.40
2018-05-06T04:22:43.295Z,8.40
2018-05-06T04:25:11.182Z,8.40
2018-05-06T04:27:38.795Z,8.40
2018-05-06T04:30:07.179Z,8.40
2018-05-06T04:32:34.795Z,8.40
2018-05-06T04:35:02.408Z,8.40
2018-05-06T04:37:30.782Z,8.40
2018-05-06T04:39:58.401Z,8.30
2018-05-06T04:42:26.006Z,8.40
2018-05-06T04:44:53.623Z,8.30
2018-05-06T04:47:21.243Z,8.40
2018-05-06T04:49:48.854Z,8.40
2018-05-06T04:52:16.462Z,8.40
2018-05-06T04:54:44.072Z,8.40
2018-05-06T04:57:11.684Z,8.40
2018-05-06T04:59:39.294Z,8.40
2018-05-06T05:02:06.925Z,8.50
2018-05-06T05:04:34.534Z,8.60
2018-05-06T05:07:02.147Z,8.70
2018-05-06T05:09:29.831Z,8.70
2018-05-06T05:11:57.376Z,8.80
2018-05-06T05:14:24.996Z,8.70
2018-05-06T05:16:52.610Z,8.70
2018-05-06T05:19:20.214Z,8.80
2018-05-06T05:21:47.835Z,8.80
2018-05-06T05:24:15.442Z,9.00
2018-05-06T05:26:43.055Z,9.00
2018-05-06T05:29:10.662Z,9.20
2018-05-06T05:31:38.272Z,9.20
2018-05-06T05:34:05.885Z,9.20
2018-05-06T05:36:33.486Z,9.20
2018-05-06T05:39:01.098Z,9.30
2018-05-06T05:41:28.712Z,9.30
2018-05-06T05:43:56.339Z,9.40
2018-05-06T05:46:23.942Z,9.50
2018-05-06T05:48:51.551Z,9.50
2018-05-06T05:51:19.163Z,9.70
2018-05-06T05:53:47.551Z,9.80
2018-05-06T05:56:15.159Z,9.70
2018-05-06T05:58:42.770Z,9.80
2018-05-06T06:01:10.596Z,9.90
2018-05-06T06:03:38.218Z,10.00
2018-05-06T06:06:05.835Z,10.00
2018-05-06T06:08:33.448Z,10.10
2018-05-06T06:11:01.067Z,10.20
2018-05-06T06:13:28.679Z,10.30
2018-05-06T06:15:56.310Z,10.50
2018-05-06T06:18:23.914Z,10.60
2018-05-06T06:20:51.530Z,10.60
2018-05-06T06:23:19.150Z,10.80
2018-05-06T06:25:46.762Z,10.80
2018-05-06T06:28:14.385Z,11.00
2018-05-06T06:30:42.400Z,11.10
2018-05-06T06:33:10.011Z,11.30
2018-05-06T06:35:37.631Z,11.40
2018-05-06T06:38:05.252Z,11.60
2018-05-06T06:40:32.866Z,11.70
2018-05-06T06:43:00.490Z,11.80
2018-05-06T06:45:28.107Z,12.00
2018-05-06T06:47:55.738Z,12.10
2018-05-06T06:50:23.338Z,12.20
2018-05-06T06:52:50.972Z,12.30
2018-05-06T06:55:18.579Z,12.40
2018-05-06T06:57:46.191Z,12.60
2018-05-06T07:00:13.802Z,12.80
2018-05-06T07:02:41.419Z,12.90
2018-05-06T07:05:09.035Z,13.00
2018-05-06T07:07:36.659Z,13.20
2018-05-06T07:10:04.299Z,13.20
2018-05-06T07:12:31.922Z,13.40
2018-05-06T07:14:59.541Z,13.50
2018-05-06T07:17:27.168Z,13.60
2018-05-06T07:19:54.789Z,13.70
2018-05-06T07:22:22.406Z,13.80
2018-05-06T07:24:50.040Z,13.90
2018-05-06T07:27:17.656Z,14.00
2018-05-06T07:29:45.283Z,14.10
2018-05-06T07:32:12.900Z,14.30
2018-05-06T07:34:40.519Z,14.50
2018-05-06T07:37:08.142Z,14.60
2018-05-06T07:39:35.755Z,14.80
2018-05-06T07:42:03.376Z,14.90
2018-05-06T07:44:30.988Z,14.90
2018-05-06T07:46:59.372Z,15.10
2018-05-06T07:49:26.990Z,15.00
2018-05-06T07:51:54.611Z,15.20
2018-05-06T07:54:22.237Z,15.30
2018-05-06T07:56:49.848Z,15.50
2018-05-06T07:59:18.235Z,15.80
2018-05-06T08:01:45.842Z,15.80
2018-05-06T08:04:13.463Z,16.00
2018-05-06T08:06:42.091Z,16.40
2018-05-06T08:09:09.717Z,16.40
2018-05-06T08:11:37.461Z,16.60
2018-05-06T08:14:05.083Z,16.70
2018-05-06T08:16:32.811Z,16.70
2018-05-06T08:19:00.333Z,16.90
2018-05-06T08:21:27.948Z,17.30
2018-05-06T08:23:55.559Z,17.50
2018-05-06T08:26:23.179Z,17.60
2018-05-06T08:28:50.795Z,17.90
2018-05-06T08:31:25.826Z,18.20
2018-05-06T08:33:53.455Z,18.30
2018-05-06T08:36:21.346Z,18.40
2018-05-06T08:38:48.967Z,18.50
2018-05-06T08:41:16.591Z,18.80
2018-05-06T08:43:44.214Z,19.20
2018-05-06T08:46:11.848Z,19.30
2018-05-06T08:48:39.459Z,19.50
2018-05-06T08:51:07.080Z,19.70
2018-05-06T08:53:34.711Z,20.00
2018-05-06T08:56:02.335Z,20.30
2018-05-06T08:58:29.955Z,20.50
2018-05-06T09:00:57.629Z,20.90
2018-05-06T09:03:25.239Z,21.20
2018-05-06T09:05:53.631Z,21.90
2018-05-06T09:08:21.242Z,21.80
2018-05-06T09:11:03.743Z,22.20
2018-05-06T09:13:31.306Z,22.60
2018-05-06T09:15:58.924Z,22.90
2018-05-06T09:18:27.312Z,23.80
2018-05-06T09:20:54.925Z,23.70
2018-05-06T09:23:22.549Z,24.00
2018-05-06T09:25:54.583Z,24.20
2018-05-06T09:28:23.008Z,24.50
2018-05-06T09:30:50.634Z,24.50
2018-05-06T09:33:18.294Z,24.60
2018-05-06T09:35:45.920Z,24.80
2018-05-06T09:38:13.596Z,25.10
2018-05-06T09:40:41.261Z,25.10
2018-05-06T09:43:08.892Z,25.50
2018-05-06T09:45:36.551Z,25.80
2018-05-06T09:48:04.200Z,25.70
2018-05-06T09:50:31.867Z,26.10
2018-05-06T09:52:59.541Z,26.30
2018-05-06T09:55:27.203Z,26.70
2018-05-06T09:57:54.842Z,26.90
2018-05-06T10:00:22.488Z,26.80
2018-05-06T10:02:50.141Z,27.00
2018-05-06T10:05:30.163Z,27.10
2018-05-06T10:07:58.531Z,27.40
2018-05-06T10:10:26.143Z,27.40
2018-05-06T10:12:53.771Z,27.10
2018-05-06T10:15:21.392Z,27.10
2018-05-06T10:17:49.007Z,27.40
2018-05-06T10:20:16.632Z,27.60
2018-05-06T10:22:44.256Z,27.70
2018-05-06T10:25:11.874Z,28.00
2018-05-06T10:27:39.500Z,28.10
2018-05-06T10:30:07.126Z,28.70
2018-05-06T10:32:34.746Z,29.10
2018-05-06T10:35:02.363Z,29.20
2018-05-06T10:37:29.979Z,29.70
2018-05-06T10:39:57.605Z,29.40
2018-05-06T10:42:25.231Z,29.50
2018-05-06T10:44:52.858Z,29.70
2018-05-06T10:47:20.486Z,30.10
2018-05-06T10:49:48.111Z,30.40
2018-05-06T10:52:16.135Z,30.40
2018-05-06T10:54:43.768Z,30.20
2018-05-06T10:57:11.384Z,30.80
2018-05-06T10:59:39.771Z,30.80
2018-05-06T11:02:07.414Z,30.80
2018-05-06T11:04:35.027Z,30.60
2018-05-06T11:07:02.652Z,30.80
2018-05-06T11:09:30.295Z,30.50
2018-05-06T11:11:57.910Z,30.80
2018-05-06T11:14:25.531Z,31.00
2018-05-06T11:16:53.151Z,30.90
2018-05-06T11:19:20.762Z,30.80
2018-05-06T11:21:48.404Z,30.90
2018-05-06T11:24:16.023Z,31.30
2018-05-06T11:26:44.415Z,32.60
2018-05-06T11:29:12.035Z,32.50
2018-05-06T11:31:39.650Z,31.90
2018-05-06T11:34:07.275Z,31.80
2018-05-06T11:36:34.903Z,31.60
2018-05-06T11:39:02.511Z,32.00
2018-05-06T11:41:30.143Z,32.50
2018-05-06T11:43:57.773Z,33.00
2018-05-06T11:46:25.389Z,33.10
2018-05-06T11:48:53.006Z,33.40
2018-05-06T11:51:20.631Z,33.10
2018-05-06T11:53:48.248Z,32.70
2018-05-06T11:56:15.892Z,33.30
2018-05-06T11:58:43.519Z,34.30
2018-05-06T12:01:11.143Z,34.50
2018-05-06T12:03:38.771Z,34.30
2018-05-06T12:06:06.395Z,34.40
2018-05-06T12:08:34.019Z,34.20
2018-05-06T12:11:02.407Z,35.50
2018-05-06T12:13:30.032Z,35.40
2018-05-06T12:15:57.739Z,35.70
2018-05-06T12:18:25.536Z,36.10
2018-05-06T12:20:53.155Z,35.30
2018-05-06T12:23:20.782Z,34.80
2018-05-06T12:25:48.398Z,35.30
2018-05-06T12:28:16.023Z,35.40
2018-05-06T12:30:43.651Z,35.10
2018-05-06T12:33:11.262Z,34.60
2018-05-06T12:35:38.901Z,34.40
2018-05-06T12:38:06.523Z,34.40
2018-05-06T12:40:34.139Z,34.10
2018-05-06T12:43:01.752Z,35.00
2018-05-06T12:45:29.372Z,35.70
2018-05-06T12:47:56.982Z,35.50
2018-05-06T12:50:24.603Z,35.20
2018-05-06T12:52:52.393Z,34.90
2018-05-06T12:55:20.003Z,35.30
2018-05-06T12:57:47.634Z,35.00
2018-05-06T13:00:15.967Z,35.00
2018-05-06T13:02:43.592Z,35.10
2018-05-06T13:05:11.202Z,35.30
2018-05-06T13:07:38.831Z,35.40
2018-05-06T13:10:06.450Z,35.20
2018-05-06T13:12:34.090Z,35.10
2018-05-06T13:15:01.698Z,34.70
2018-05-06T13:17:29.399Z,34.50
2018-05-06T13:19:56.947Z,34.20
2018-05-06T13:22:24.570Z,35.10
2018-05-06T13:24:52.190Z,35.20
2018-05-06T13:27:19.808Z,35.20
2018-05-06T13:29:47.430Z,34.70
2018-05-06T13:32:15.828Z,35.00
2018-05-06T13:34:43.459Z,35.00
2018-05-06T13:37:11.074Z,34.20
2018-05-06T13:39:38.686Z,33.80
2018-05-06T13:42:06.302Z,33.50
2018-05-06T13:44:34.091Z,33.70
2018-05-06T13:47:01.715Z,34.40
2018-05-06T13:49:30.106Z,34.70
2018-05-06T13:51:57.743Z,34.70
2018-05-06T13:54:25.359Z,34.40
2018-05-06T13:56:52.975Z,34.00
2018-05-06T13:59:20.594Z,33.20
2018-05-06T14:01:48.210Z,32.10
2018-05-06T14:04:15.840Z,31.50
2018-05-06T14:06:43.463Z,30.60
2018-05-06T14:09:11.087Z,30.10
2018-05-06T14:11:38.704Z,29.40
2018-05-06T14:14:06.325Z,29.00
2018-05-06T14:16:33.956Z,28.90
2018-05-06T14:19:01.571Z,28.90
2018-05-06T14:21:29.186Z,29.00
2018-05-06T14:23:56.806Z,28.80
2018-05-06T14:26:24.424Z,28.70
2018-05-06T14:28:52.040Z,28.50
2018-05-06T14:31:19.656Z,27.90
2018-05-06T14:33:47.274Z,27.90
2018-05-06T14:36:14.934Z,27.80
2018-05-06T14:38:42.554Z,28.10
2018-05-06T14:41:10.162Z,28.00
2018-05-06T14:43:37.783Z,28.00
2018-05-06T14:46:05.407Z,28.00
2018-05-06T14:48:33.833Z,27.60
2018-05-06T14:51:01.425Z,27.60
2018-05-06T14:53:29.039Z,27.50
2018-05-06T14:55:56.696Z,27.50
2018-05-06T14:58:24.287Z,27.30
2018-05-06T15:00:52.324Z,27.20
2018-05-06T15:03:19.947Z,27.10
2018-05-06T15:05:47.568Z,27.00
2018-05-06T15:08:15.187Z,27.10
2018-05-06T15:10:42.914Z,27.30
2018-05-06T15:13:10.443Z,27.30
2018-05-06T15:15:38.142Z,26.90
2018-05-06T15:18:05.687Z,26.80
2018-05-06T15:20:33.312Z,26.70
2018-05-06T15:23:00.932Z,26.60
2018-05-06T15:25:28.565Z,26.60
2018-05-06T15:27:56.254Z,26.50
2018-05-06T15:30:23.798Z,26.40
2018-05-06T15:32:52.184Z,26.10
2018-05-06T15:35:19.810Z,26.10
2018-05-06T15:37:47.424Z,26.20
2018-05-06T15:40:15.296Z,26.00
2018-05-06T15:42:42.915Z,25.90
2018-05-06T15:45:10.531Z,25.90
2018-05-06T15:47:38.154Z,25.90
2018-05-06T15:50:05.842Z,25.90
2018-05-06T15:52:33.463Z,25.90
2018-05-06T15:55:01.083Z,25.80
2018-05-06T15:57:28.706Z,25.70
2018-05-06T15:59:56.323Z,25.60
2018-05-06T16:02:57.403Z,25.50
2018-05-06T16:05:25.015Z,25.30
2018-05-06T16:07:52.636Z,25.20
2018-05-06T16:10:20.254Z,25.20
2018-05-06T16:12:48.635Z,25.10
2018-05-06T16:15:16.262Z,25.10
2018-05-06T16:17:43.917Z,25.00
2018-05-06T16:20:11.498Z,25.10
2018-05-06T16:22:39.121Z,25.00
2018-05-06T16:25:06.751Z,25.00
2018-05-06T16:27:34.386Z,25.00
2018-05-06T16:30:02.016Z,24.90
2018-05-06T16:32:29.635Z,24.90
2018-05-06T16:34:57.254Z,24.70
2018-05-06T16:37:24.874Z,24.60
2018-05-06T16:39:52.492Z,24.60
2018-05-06T16:42:20.128Z,24.50
2018-05-06T16:44:47.742Z,24.40
2018-05-06T16:47:15.367Z,24.50
2018-05-06T16:49:42.976Z,24.40
2018-05-06T16:52:10.587Z,24.40
2018-05-06T16:54:38.975Z,24.40
2018-05-06T16:57:06.599Z,24.30
2018-05-06T16:59:34.211Z,24.30
2018-05-06T17:02:02.606Z,24.10
2018-05-06T17:04:30.226Z,24.10
2018-05-06T17:06:57.905Z,24.10
2018-05-06T17:09:25.499Z,24.10
2018-05-06T17:11:53.895Z,24.00
2018-05-06T17:14:21.510Z,24.00
2018-05-06T17:16:49.131Z,24.00
2018-05-06T17:19:22.059Z,23.90
2018-05-06T17:21:49.694Z,23.60
2018-05-06T17:24:17.318Z,23.30
2018-05-06T17:26:45.703Z,23.20
2018-05-06T17:29:13.452Z,23.10
2018-05-06T17:31:41.610Z,23.20
2018-05-06T17:34:09.226Z,23.10
2018-05-06T17:36:36.855Z,23.00
2018-05-06T17:39:05.383Z,23.00
2018-05-06T17:41:33.019Z,23.00
2018-05-06T17:44:00.634Z,23.00
2018-05-06T17:46:28.263Z,22.90
2018-05-06T17:48:55.884Z,22.90
2018-05-06T17:51:23.770Z,22.90
2018-05-06T17:53:51.387Z,22.90
2018-05-06T17:56:19.019Z,22.80
2018-05-06T17:58:46.679Z,22.70
2018-05-06T18:01:14.279Z,22.70
2018-05-06T18:03:41.906Z,22.70
2018-05-06T18:06:09.903Z,22.70
2018-05-06T18:11:42.278Z,22.50
2018-05-06T18:14:09.939Z,22.30
2018-05-06T18:16:37.585Z,22.20
2018-05-06T18:19:05.298Z,22.10
2018-05-06T18:21:33.713Z,22.00
2018-05-06T18:24:01.394Z,21.90
2018-05-06T18:26:29.045Z,21.80
2018-05-06T18:28:56.785Z,21.80
2018-05-06T18:31:25.194Z,21.70
2018-05-06T18:33:52.846Z,21.70
2018-05-06T18:36:20.495Z,21.50
2018-05-06T18:38:48.934Z,21.20
2018-05-06T18:41:16.569Z,21.20
2018-05-06T18:43:44.216Z,21.10
2018-05-06T18:46:11.850Z,21.10
2018-05-06T18:48:39.505Z,21.00
2018-05-06T18:51:12.683Z,20.90
2018-05-06T18:53:40.542Z,20.70
2018-05-06T18:56:09.095Z,20.70
2018-05-06T18:58:36.800Z,20.50
2018-05-06T19:01:04.455Z,20.40
2018-05-06T19:03:32.205Z,20.20
2018-05-06T19:06:00.609Z,19.90
2018-05-06T19:08:28.274Z,19.90
2018-05-06T19:10:55.914Z,19.80
2018-05-06T19:13:23.592Z,19.70
2018-05-06T19:15:51.263Z,19.80
2018-05-06T19:18:18.928Z,19.80
2018-05-06T19:20:46.576Z,19.80
2018-05-06T19:23:14.276Z,19.80
2018-05-06T19:25:42.689Z,19.90
2018-05-06T19:28:10.334Z,19.80
2018-05-06T19:30:38.037Z,19.90
2018-05-06T19:33:05.710Z,19.90
2018-05-06T19:35:33.487Z,19.90
2018-05-06T19:38:01.251Z,19.80
2018-05-06T19:40:28.898Z,19.70
2018-05-06T19:42:58.615Z,19.60
2018-05-06T19:45:26.283Z,19.40
2018-05-06T19:47:53.943Z,19.20
2018-05-06T19:50:21.576Z,19.00
2018-05-06T19:52:49.210Z,18.90
2018-05-06T19:55:16.831Z,18.70
2018-05-06T19:57:44.447Z,18.80
2018-05-06T20:00:14.515Z,18.90
2018-05-06T20:02:42.175Z,18.90
2018-05-06T20:05:09.786Z,18.90
2018-05-06T20:07:38.174Z,18.70
2018-05-06T20:10:19.083Z,18.60
2018-05-06T20:12:46.716Z,18.60
2018-05-06T20:15:14.382Z,18.50
2018-05-06T20:17:41.954Z,18.30
2018-05-06T20:20:09.577Z,18.30
2018-05-06T20:22:37.199Z,18.10
2018-05-06T20:25:04.824Z,17.90
2018-05-06T20:27:32.451Z,18.00
2018-05-06T20:30:00.076Z,17.90
2018-05-06T20:32:28.450Z,17.70
2018-05-06T20:34:56.083Z,17.70
2018-05-06T20:37:23.695Z,17.50
2018-05-06T20:39:51.323Z,17.30
2018-05-06T20:42:19.331Z,17.20
2018-05-06T20:44:47.724Z,17.30
2018-05-06T20:47:15.343Z,17.30
2018-05-06T20:49:42.965Z,17.30
2018-05-06T20:52:10.591Z,17.10
2018-05-06T20:54:38.211Z,17.20
2018-05-06T20:57:06.226Z,16.80
2018-05-06T20:59:33.844Z,16.80
2018-05-06T21:02:02.597Z,16.80
2018-05-06T21:04:30.431Z,16.60
2018-05-06T21:06:58.104Z,16.60
2018-05-06T21:09:25.799Z,16.60
2018-05-06T21:11:53.451Z,16.40
2018-05-06T21:14:21.104Z,16.40
2018-05-06T21:16:49.014Z,16.50
2018-05-06T21:19:16.724Z,16.50
2018-05-06T21:21:44.450Z,16.50
2018-05-06T21:24:12.159Z,16.40
2018-05-06T21:26:40.162Z,16.40
2018-05-06T21:29:08.703Z,16.20
2018-05-06T21:31:37.211Z,16.00
2018-05-06T21:34:05.057Z,16.00
2018-05-06T21:36:32.794Z,16.00
2018-05-06T21:39:00.451Z,15.80
2018-05-06T21:41:28.038Z,15.70
2018-05-06T21:43:55.664Z,15.70
2018-05-06T21:46:23.278Z,15.50
2018-05-06T21:48:50.899Z,15.50
2018-05-06T21:51:18.516Z,15.50
2018-05-06T21:53:46.139Z,15.50
2018-05-06T21:56:13.895Z,15.50
2018-05-06T21:58:41.504Z,15.50
2018-05-06T22:01:25.858Z,15.50
2018-05-06T22:03:53.859Z,15.10
2018-05-06T22:06:21.479Z,15.10
2018-05-06T22:08:49.090Z,15.00
2018-05-06T22:11:16.716Z,14.90
2018-05-06T22:13:44.340Z,14.90
2018-05-06T22:16:11.950Z,15.00
2018-05-06T22:18:39.582Z,15.00
2018-05-06T22:21:07.204Z,15.00
2018-05-06T22:23:34.820Z,15.00
2018-05-06T22:26:02.447Z,14.90
2018-05-06T22:28:30.069Z,14.80
2018-05-06T22:30:57.692Z,14.80
2018-05-06T22:33:25.303Z,14.60
2018-05-06T22:35:52.923Z,14.60
2018-05-06T22:38:20.546Z,14.50
2018-05-06T22:40:48.367Z,14.40
2018-05-06T22:43:16.379Z,14.30
2018-05-06T22:45:43.995Z,14.30
2018-05-06T22:48:11.616Z,14.10
2018-05-06T22:50:39.230Z,14.00
2018-05-06T22:53:06.859Z,14.10
2018-05-06T22:55:35.243Z,14.20
2018-05-06T22:58:02.867Z,14.20
2018-05-06T23:00:30.520Z,14.20
2018-05-06T23:02:58.115Z,14.20
2018-05-06T23:05:25.728Z,14.10
2018-05-06T23:07:53.352Z,14.10
2018-05-06T23:10:20.998Z,14.10
2018-05-06T23:12:48.622Z,14.00
2018-05-06T23:15:16.242Z,13.90
2018-05-06T23:17:43.863Z,13.80
2018-05-06T23:20:11.474Z,13.80
2018-05-06T23:22:45.651Z,13.60
2018-05-06T23:25:13.279Z,13.40
2018-05-06T23:27:41.667Z,13.30
2018-05-06T23:30:09.287Z,13.30
2018-05-06T23:32:36.911Z,13.30
2018-05-06T23:35:04.532Z,13.30
2018-05-06T23:37:32.146Z,13.20
2018-05-06T23:39:59.772Z,13.10
2018-05-06T23:42:27.386Z,13.20
2018-05-06T23:44:55.001Z,13.10
2018-05-06T23:47:22.610Z,13.00
2018-05-06T23:49:50.239Z,13.00
2018-05-06T23:52:18.246Z,12.90
2018-05-06T23:57:20.631Z,12.80
2018-05-06T23:59:48.247Z,12.80
